sensor_id;sensor_type;location;lat;lon;timestamp;temperature;humidity
68189;DHT22;66299;47.514;19.218;2023-05-07T00:01:48;13.80;93.68
68189;DHT22;66299;47.514;19.218;2023-05-07T00:04:25;13.76;93.79
68189;DHT22;66299;47.514;19.218;2023-05-07T00:07:02;13.71;93.84
68189;DHT22;66299;47.514;19.218;2023-05-07T00:09:33;13.66;93.73
68189;DHT22;66299;47.514;19.218;2023-05-07T00:12:05;13.62;94.01
68189;DHT22;66299;47.514;19.218;2023-05-07T00:14:36;13.55;94.15
68189;DHT22;66299;47.514;19.218;2023-05-07T00:17:07;13.51;93.91
68189;DHT22;66299;47.514;19.218;2023-05-07T00:19:44;13.37;94.56
68189;DHT22;66299;47.514;19.218;2023-05-07T00:22:15;13.30;94.92
68189;DHT22;66299;47.514;19.218;2023-05-07T00:24:47;13.17;94.71
68189;DHT22;66299;47.514;19.218;2023-05-07T00:27:19;13.17;95.32
68189;DHT22;66299;47.514;19.218;2023-05-07T00:29:50;13.11;95.14
68189;DHT22;66299;47.514;19.218;2023-05-07T00:32:20;13.00;95.39
68189;DHT22;66299;47.514;19.218;2023-05-07T00:34:53;13.02;96.03
68189;DHT22;66299;47.514;19.218;2023-05-07T00:37:36;13.06;95.50
68189;DHT22;66299;47.514;19.218;2023-05-07T00:40:08;13.02;95.59
68189;DHT22;66299;47.514;19.218;2023-05-07T00:42:39;13.18;95.58
68189;DHT22;66299;47.514;19.218;2023-05-07T00:45:14;13.15;95.21
68189;DHT22;66299;47.514;19.218;2023-05-07T00:47:43;13.03;95.35
68189;DHT22;66299;47.514;19.218;2023-05-07T00:50:17;13.03;95.91
68189;DHT22;66299;47.514;19.218;2023-05-07T00:52:48;13.02;95.83
68189;DHT22;66299;47.514;19.218;2023-05-07T00:55:21;13.02;95.33
68189;DHT22;66299;47.514;19.218;2023-05-07T00:57:51;13.11;95.62
68189;DHT22;66299;47.514;19.218;2023-05-07T01:00:28;13.04;94.90
68189;DHT22;66299;47.514;19.218;2023-05-07T01:02:57;13.04;95.01
68189;DHT22;66299;47.514;19.218;2023-05-07T01:05:33;13.07;95.74
68189;DHT22;66299;47.514;19.218;2023-05-07T01:08:06;13.04;95.43
68189;DHT22;66299;47.514;19.218;2023-05-07T01:10:39;12.96;95.70
68189;DHT22;66299;47.514;19.218;2023-05-07T01:13:11;12.99;95.69
68189;DHT22;66299;47.514;19.218;2023-05-07T01:15:52;13.04;95.91
68189;DHT22;66299;47.514;19.218;2023-05-07T01:21:08;13.14;95.60
68189;DHT22;66299;47.514;19.218;2023-05-07T01:23:44;13.17;95.23
68189;DHT22;66299;47.514;19.218;2023-05-07T01:26:18;13.20;95.64
68189;DHT22;66299;47.514;19.218;2023-05-07T01:28:53;13.07;95.91
68189;DHT22;66299;47.514;19.218;2023-05-07T01:31:26;13.00;95.91
68189;DHT22;66299;47.514;19.218;2023-05-07T01:33:56;13.06;95.30
68189;DHT22;66299;47.514;19.218;2023-05-07T01:36:30;13.06;95.10
68189;DHT22;66299;47.514;19.218;2023-05-07T01:39:03;13.04;95.39
68189;DHT22;66299;47.514;19.218;2023-05-07T01:41:39;13.06;94.80
68189;DHT22;66299;47.514;19.218;2023-05-07T01:44:13;13.04;95.17
68189;DHT22;66299;47.514;19.218;2023-05-07T01:46:44;12.99;95.78
68189;DHT22;66299;47.514;19.218;2023-05-07T01:49:13;12.80;96.14
68189;DHT22;66299;47.514;19.218;2023-05-07T01:51:44;12.70;96.10
68189;DHT22;66299;47.514;19.218;2023-05-07T01:54:14;12.59;96.20
68189;DHT22;66299;47.514;19.218;2023-05-07T01:56:57;12.52;96.40
68189;DHT22;66299;47.514;19.218;2023-05-07T01:59:27;12.49;96.27
68189;DHT22;66299;47.514;19.218;2023-05-07T02:01:58;12.41;96.28
68189;DHT22;66299;47.514;19.218;2023-05-07T02:04:29;12.39;96.75
68189;DHT22;66299;47.514;19.218;2023-05-07T02:07:03;12.34;97.45
68189;DHT22;66299;47.514;19.218;2023-05-07T02:09:35;12.31;97.37
68189;DHT22;66299;47.514;19.218;2023-05-07T02:12:06;12.22;97.00
68189;DHT22;66299;47.514;19.218;2023-05-07T02:14:39;12.10;96.79
68189;DHT22;66299;47.514;19.218;2023-05-07T02:17:08;11.95;97.26
68189;DHT22;66299;47.514;19.218;2023-05-07T02:19:39;11.94;97.57
68189;DHT22;66299;47.514;19.218;2023-05-07T02:22:10;11.91;97.56
68189;DHT22;66299;47.514;19.218;2023-05-07T02:24:42;11.87;97.70
68189;DHT22;66299;47.514;19.218;2023-05-07T02:27:14;11.78;98.19
68189;DHT22;66299;47.514;19.218;2023-05-07T02:29:46;11.76;98.18
68189;DHT22;66299;47.514;19.218;2023-05-07T02:32:16;11.80;98.80
68189;DHT22;66299;47.514;19.218;2023-05-07T02:34:49;11.74;98.48
68189;DHT22;66299;47.514;19.218;2023-05-07T02:37:20;11.78;98.52
68189;DHT22;66299;47.514;19.218;2023-05-07T02:39:58;11.76;98.82
68189;DHT22;66299;47.514;19.218;2023-05-07T02:42:31;11.74;99.00
68189;DHT22;66299;47.514;19.218;2023-05-07T02:45:02;11.70;99.20
68189;DHT22;66299;47.514;19.218;2023-05-07T02:47:32;11.57;98.84
68189;DHT22;66299;47.514;19.218;2023-05-07T02:50:06;11.52;98.77
68189;DHT22;66299;47.514;19.218;2023-05-07T02:52:36;11.42;98.77
68189;DHT22;66299;47.514;19.218;2023-05-07T02:55:09;11.39;98.84
68189;DHT22;66299;47.514;19.218;2023-05-07T02:57:42;11.30;98.67
68189;DHT22;66299;47.514;19.218;2023-05-07T03:00:13;11.39;99.43
68189;DHT22;66299;47.514;19.218;2023-05-07T03:02:43;11.42;99.14
68189;DHT22;66299;47.514;19.218;2023-05-07T03:05:13;11.36;98.59
68189;DHT22;66299;47.514;19.218;2023-05-07T03:07:42;11.26;98.70
68189;DHT22;66299;47.514;19.218;2023-05-07T03:10:18;11.22;98.94
68189;DHT22;66299;47.514;19.218;2023-05-07T03:12:48;11.21;99.06
68189;DHT22;66299;47.514;19.218;2023-05-07T03:15:22;11.23;99.06
68189;DHT22;66299;47.514;19.218;2023-05-07T03:17:53;11.18;98.74
68189;DHT22;66299;47.514;19.218;2023-05-07T03:20:25;11.15;98.57
68189;DHT22;66299;47.514;19.218;2023-05-07T03:22:59;11.18;98.84
68189;DHT22;66299;47.514;19.218;2023-05-07T03:25:32;11.14;99.09
68189;DHT22;66299;47.514;19.218;2023-05-07T03:28:04;11.11;98.68
68189;DHT22;66299;47.514;19.218;2023-05-07T03:30:35;11.11;98.94
68189;DHT22;66299;47.514;19.218;2023-05-07T03:33:06;11.11;98.80
68189;DHT22;66299;47.514;19.218;2023-05-07T03:35:39;11.14;99.17
68189;DHT22;66299;47.514;19.218;2023-05-07T03:38:12;11.21;99.06
68189;DHT22;66299;47.514;19.218;2023-05-07T03:40:45;11.14;98.97
68189;DHT22;66299;47.514;19.218;2023-05-07T03:43:27;11.19;98.62
68189;DHT22;66299;47.514;19.218;2023-05-07T03:45:57;11.22;97.94
68189;DHT22;66299;47.514;19.218;2023-05-07T03:48:32;11.25;97.90
68189;DHT22;66299;47.514;19.218;2023-05-07T03:51:06;11.32;98.30
68189;DHT22;66299;47.514;19.218;2023-05-07T03:53:40;11.38;98.26
68189;DHT22;66299;47.514;19.218;2023-05-07T03:56:13;11.46;98.20
68189;DHT22;66299;47.514;19.218;2023-05-07T03:58:58;11.50;97.89
68189;DHT22;66299;47.514;19.218;2023-05-07T04:01:34;11.59;98.38
68189;DHT22;66299;47.514;19.218;2023-05-07T04:04:13;11.60;97.52
68189;DHT22;66299;47.514;19.218;2023-05-07T04:06:44;11.71;97.86
68189;DHT22;66299;47.514;19.218;2023-05-07T04:09:17;11.78;97.73
68189;DHT22;66299;47.514;19.218;2023-05-07T04:11:50;11.83;97.59
68189;DHT22;66299;47.514;19.218;2023-05-07T04:14:20;11.81;97.37
68189;DHT22;66299;47.514;19.218;2023-05-07T04:16:53;11.80;97.34
68189;DHT22;66299;47.514;19.218;2023-05-07T04:19:23;11.77;97.65
68189;DHT22;66299;47.514;19.218;2023-05-07T04:21:51;11.87;97.60
68189;DHT22;66299;47.514;19.218;2023-05-07T04:24:32;11.97;97.80
68189;DHT22;66299;47.514;19.218;2023-05-07T04:27:02;12.11;97.78
68189;DHT22;66299;47.514;19.218;2023-05-07T04:29:36;12.22;97.67
68189;DHT22;66299;47.514;19.218;2023-05-07T04:32:09;12.31;97.51
68189;DHT22;66299;47.514;19.218;2023-05-07T04:34:41;12.38;97.49
68189;DHT22;66299;47.514;19.218;2023-05-07T04:37:13;12.48;97.22
68189;DHT22;66299;47.514;19.218;2023-05-07T04:39:46;12.55;96.87
68189;DHT22;66299;47.514;19.218;2023-05-07T04:42:17;12.56;95.27
68189;DHT22;66299;47.514;19.218;2023-05-07T04:44:52;12.59;95.07
68189;DHT22;66299;47.514;19.218;2023-05-07T04:47:22;12.62;94.50
68189;DHT22;66299;47.514;19.218;2023-05-07T04:49:52;12.80;94.91
68189;DHT22;66299;47.514;19.218;2023-05-07T04:52:21;12.90;94.63
68189;DHT22;66299;47.514;19.218;2023-05-07T04:54:54;13.02;94.53
68189;DHT22;66299;47.514;19.218;2023-05-07T04:57:26;13.11;94.06
68189;DHT22;66299;47.514;19.218;2023-05-07T04:59:57;13.21;94.25
68189;DHT22;66299;47.514;19.218;2023-05-07T05:02:28;13.40;93.37
68189;DHT22;66299;47.514;19.218;2023-05-07T05:04:57;13.50;93.24
68189;DHT22;66299;47.514;19.218;2023-05-07T05:07:30;13.58;93.88
68189;DHT22;66299;47.514;19.218;2023-05-07T05:10:01;13.62;94.25
68189;DHT22;66299;47.514;19.218;2023-05-07T05:12:36;13.72;94.23
68189;DHT22;66299;47.514;19.218;2023-05-07T05:15:09;13.76;94.21
68189;DHT22;66299;47.514;19.218;2023-05-07T05:17:44;13.93;93.43
68189;DHT22;66299;47.514;19.218;2023-05-07T05:20:17;14.20;92.97
68189;DHT22;66299;47.514;19.218;2023-05-07T05:22:48;14.47;92.64
68189;DHT22;66299;47.514;19.218;2023-05-07T05:25:23;14.72;92.41
68189;DHT22;66299;47.514;19.218;2023-05-07T05:28:00;14.88;92.26
68189;DHT22;66299;47.514;19.218;2023-05-07T05:30:33;15.02;92.38
68189;DHT22;66299;47.514;19.218;2023-05-07T05:33:04;15.22;91.67
68189;DHT22;66299;47.514;19.218;2023-05-07T05:35:36;15.19;92.02
68189;DHT22;66299;47.514;19.218;2023-05-07T05:38:05;15.19;92.28
68189;DHT22;66299;47.514;19.218;2023-05-07T05:40:34;15.42;91.47
68189;DHT22;66299;47.514;19.218;2023-05-07T05:43:06;15.64;91.13
68189;DHT22;66299;47.514;19.218;2023-05-07T05:45:38;15.90;90.30
68189;DHT22;66299;47.514;19.218;2023-05-07T05:48:11;16.01;89.79
68189;DHT22;66299;47.514;19.218;2023-05-07T05:50:46;16.08;88.71
68189;DHT22;66299;47.514;19.218;2023-05-07T05:53:15;16.16;88.71
68189;DHT22;66299;47.514;19.218;2023-05-07T05:55:47;16.34;87.94
68189;DHT22;66299;47.514;19.218;2023-05-07T05:58:20;16.42;87.56
68189;DHT22;66299;47.514;19.218;2023-05-07T06:00:50;16.56;86.95
68189;DHT22;66299;47.514;19.218;2023-05-07T06:03:22;16.59;86.63
68189;DHT22;66299;47.514;19.218;2023-05-07T06:05:54;16.70;85.21
68189;DHT22;66299;47.514;19.218;2023-05-07T06:08:30;16.84;85.79
68189;DHT22;66299;47.514;19.218;2023-05-07T06:11:04;16.84;84.13
68189;DHT22;66299;47.514;19.218;2023-05-07T06:13:39;17.03;84.48
68189;DHT22;66299;47.514;19.218;2023-05-07T06:16:15;17.11;84.27
68189;DHT22;66299;47.514;19.218;2023-05-07T06:18:45;17.15;83.21
68189;DHT22;66299;47.514;19.218;2023-05-07T06:21:17;17.35;82.83
68189;DHT22;66299;47.514;19.218;2023-05-07T06:23:48;17.46;81.67
68189;DHT22;66299;47.514;19.218;2023-05-07T06:26:22;17.39;81.73
68189;DHT22;66299;47.514;19.218;2023-05-07T06:28:58;17.67;80.83
68189;DHT22;66299;47.514;19.218;2023-05-07T06:31:34;17.77;80.65
68189;DHT22;66299;47.514;19.218;2023-05-07T06:34:04;17.84;79.89
68189;DHT22;66299;47.514;19.218;2023-05-07T06:36:37;17.84;79.46
68189;DHT22;66299;47.514;19.218;2023-05-07T06:39:09;18.00;79.82
68189;DHT22;66299;47.514;19.218;2023-05-07T06:41:40;18.18;78.70
68189;DHT22;66299;47.514;19.218;2023-05-07T06:44:19;18.35;77.64
68189;DHT22;66299;47.514;19.218;2023-05-07T06:46:50;18.35;78.02
68189;DHT22;66299;47.514;19.218;2023-05-07T06:49:20;18.40;77.89
68189;DHT22;66299;47.514;19.218;2023-05-07T06:51:56;18.58;77.40
68189;DHT22;66299;47.514;19.218;2023-05-07T06:54:29;18.88;77.17
68189;DHT22;66299;47.514;19.218;2023-05-07T06:57:00;18.95;76.80
68189;DHT22;66299;47.514;19.218;2023-05-07T06:59:32;18.65;76.11
68189;DHT22;66299;47.514;19.218;2023-05-07T07:02:04;18.58;75.63
68189;DHT22;66299;47.514;19.218;2023-05-07T07:04:37;18.96;75.70
68189;DHT22;66299;47.514;19.218;2023-05-07T07:07:09;19.09;75.26
68189;DHT22;66299;47.514;19.218;2023-05-07T07:09:38;19.34;74.25
68189;DHT22;66299;47.514;19.218;2023-05-07T07:12:08;19.44;74.19
68189;DHT22;66299;47.514;19.218;2023-05-07T07:14:41;19.57;72.17
68189;DHT22;66299;47.514;19.218;2023-05-07T07:17:15;19.31;72.28
68189;DHT22;66299;47.514;19.218;2023-05-07T07:19:44;19.77;72.43
68189;DHT22;66299;47.514;19.218;2023-05-07T07:22:19;20.15;70.32
68189;DHT22;66299;47.514;19.218;2023-05-07T07:24:49;20.23;69.49
68189;DHT22;66299;47.514;19.218;2023-05-07T07:27:23;20.16;70.70
68189;DHT22;66299;47.514;19.218;2023-05-07T07:30:03;19.89;70.29
68189;DHT22;66299;47.514;19.218;2023-05-07T07:32:38;19.89;69.85
68189;DHT22;66299;47.514;19.218;2023-05-07T07:35:12;20.22;70.04
68189;DHT22;66299;47.514;19.218;2023-05-07T07:37:42;20.10;70.39
68189;DHT22;66299;47.514;19.218;2023-05-07T07:40:22;20.00;70.65
68189;DHT22;66299;47.514;19.218;2023-05-07T07:42:54;20.27;70.04
68189;DHT22;66299;47.514;19.218;2023-05-07T07:45:27;20.29;68.31
68189;DHT22;66299;47.514;19.218;2023-05-07T07:47:58;20.39;69.50
68189;DHT22;66299;47.514;19.218;2023-05-07T07:50:29;20.43;68.01
68189;DHT22;66299;47.514;19.218;2023-05-07T07:53:13;20.78;67.46
68189;DHT22;66299;47.514;19.218;2023-05-07T07:55:45;20.90;67.44
68189;DHT22;66299;47.514;19.218;2023-05-07T07:58:17;20.80;65.84
68189;DHT22;66299;47.514;19.218;2023-05-07T08:00:54;20.81;67.25
68189;DHT22;66299;47.514;19.218;2023-05-07T08:03:26;20.98;67.75
68189;DHT22;66299;47.514;19.218;2023-05-07T08:06:04;21.15;65.87
68189;DHT22;66299;47.514;19.218;2023-05-07T08:08:40;21.87;64.64
68189;DHT22;66299;47.514;19.218;2023-05-07T08:11:12;21.50;64.35
68189;DHT22;66299;47.514;19.218;2023-05-07T08:13:44;21.93;64.15
68189;DHT22;66299;47.514;19.218;2023-05-07T08:16:20;21.73;63.39
68189;DHT22;66299;47.514;19.218;2023-05-07T08:18:51;21.05;63.72
68189;DHT22;66299;47.514;19.218;2023-05-07T08:21:27;21.66;63.49
68189;DHT22;66299;47.514;19.218;2023-05-07T08:24:05;21.38;63.59
68189;DHT22;66299;47.514;19.218;2023-05-07T08:26:37;21.28;62.99
68189;DHT22;66299;47.514;19.218;2023-05-07T08:29:10;20.96;63.58
68189;DHT22;66299;47.514;19.218;2023-05-07T08:31:48;21.30;63.40
68189;DHT22;66299;47.514;19.218;2023-05-07T08:34:17;21.28;62.86
68189;DHT22;66299;47.514;19.218;2023-05-07T08:36:52;21.15;64.06
68189;DHT22;66299;47.514;19.218;2023-05-07T08:39:30;21.18;63.49
68189;DHT22;66299;47.514;19.218;2023-05-07T08:42:03;21.36;61.75
68189;DHT22;66299;47.514;19.218;2023-05-07T08:44:38;20.98;63.53
68189;DHT22;66299;47.514;19.218;2023-05-07T08:47:12;20.94;62.77
68189;DHT22;66299;47.514;19.218;2023-05-07T08:49:42;20.84;64.26
68189;DHT22;66299;47.514;19.218;2023-05-07T08:52:15;20.90;63.90
68189;DHT22;66299;47.514;19.218;2023-05-07T08:54:50;20.88;62.71
68189;DHT22;66299;47.514;19.218;2023-05-07T08:57:24;21.33;63.54
68189;DHT22;66299;47.514;19.218;2023-05-07T08:59:57;21.50;64.31
68189;DHT22;66299;47.514;19.218;2023-05-07T09:02:31;21.30;64.93
68189;DHT22;66299;47.514;19.218;2023-05-07T09:04:59;21.39;66.51
68189;DHT22;66299;47.514;19.218;2023-05-07T09:07:28;20.91;67.56
68189;DHT22;66299;47.514;19.218;2023-05-07T09:10:02;20.99;67.45
68189;DHT22;66299;47.514;19.218;2023-05-07T09:12:33;21.11;67.46
68189;DHT22;66299;47.514;19.218;2023-05-07T09:15:03;20.92;67.69
68189;DHT22;66299;47.514;19.218;2023-05-07T09:17:36;21.28;67.19
68189;DHT22;66299;47.514;19.218;2023-05-07T09:20:09;21.39;65.59
68189;DHT22;66299;47.514;19.218;2023-05-07T09:22:43;21.32;65.58
68189;DHT22;66299;47.514;19.218;2023-05-07T09:25:15;21.59;64.07
68189;DHT22;66299;47.514;19.218;2023-05-07T09:27:56;21.54;64.98
68189;DHT22;66299;47.514;19.218;2023-05-07T09:30:29;21.47;64.55
68189;DHT22;66299;47.514;19.218;2023-05-07T09:33:05;21.67;63.17
68189;DHT22;66299;47.514;19.218;2023-05-07T09:35:39;21.46;63.58
68189;DHT22;66299;47.514;19.218;2023-05-07T09:38:08;21.49;63.04
68189;DHT22;66299;47.514;19.218;2023-05-07T09:40:46;21.38;62.96
68189;DHT22;66299;47.514;19.218;2023-05-07T09:43:17;22.22;61.37
68189;DHT22;66299;47.514;19.218;2023-05-07T09:46:00;22.18;59.27
68189;DHT22;66299;47.514;19.218;2023-05-07T09:48:36;22.92;59.26
68189;DHT22;66299;47.514;19.218;2023-05-07T09:51:25;22.75;57.78
68189;DHT22;66299;47.514;19.218;2023-05-07T09:53:57;23.20;54.77
68189;DHT22;66299;47.514;19.218;2023-05-07T09:56:37;22.25;56.19
68189;DHT22;66299;47.514;19.218;2023-05-07T09:59:21;22.44;55.68
68189;DHT22;66299;47.514;19.218;2023-05-07T10:01:54;23.41;53.83
68189;DHT22;66299;47.514;19.218;2023-05-07T10:04:27;24.23;52.20
68189;DHT22;66299;47.514;19.218;2023-05-07T10:06:58;24.14;51.21
68189;DHT22;66299;47.514;19.218;2023-05-07T10:09:30;24.67;49.81
68189;DHT22;66299;47.514;19.218;2023-05-07T10:12:01;23.79;52.55
68189;DHT22;66299;47.514;19.218;2023-05-07T10:14:38;23.73;52.92
68189;DHT22;66299;47.514;19.218;2023-05-07T10:17:13;24.03;53.30
68189;DHT22;66299;47.514;19.218;2023-05-07T10:19:44;23.02;55.71
68189;DHT22;66299;47.514;19.218;2023-05-07T10:22:20;22.70;53.96
68189;DHT22;66299;47.514;19.218;2023-05-07T10:24:49;22.56;56.90
68189;DHT22;66299;47.514;19.218;2023-05-07T10:27:21;22.42;57.54
68189;DHT22;66299;47.514;19.218;2023-05-07T10:30:03;22.14;57.18
68189;DHT22;66299;47.514;19.218;2023-05-07T10:32:54;22.24;57.24
68189;DHT22;66299;47.514;19.218;2023-05-07T10:35:27;22.11;58.17
68189;DHT22;66299;47.514;19.218;2023-05-07T10:38:00;21.69;56.95
68189;DHT22;66299;47.514;19.218;2023-05-07T10:40:29;22.25;56.45
68189;DHT22;66299;47.514;19.218;2023-05-07T10:42:59;21.97;56.27
68189;DHT22;66299;47.514;19.218;2023-05-07T10:45:30;21.74;56.67
68189;DHT22;66299;47.514;19.218;2023-05-07T10:48:16;21.78;58.13
68189;DHT22;66299;47.514;19.218;2023-05-07T10:51:20;21.76;58.13
68189;DHT22;66299;47.514;19.218;2023-05-07T10:54:20;22.07;58.75
68189;DHT22;66299;47.514;19.218;2023-05-07T10:56:53;21.94;56.63
68189;DHT22;66299;47.514;19.218;2023-05-07T10:59:35;21.60;59.73
68189;DHT22;66299;47.514;19.218;2023-05-07T11:02:10;21.54;60.00
68189;DHT22;66299;47.514;19.218;2023-05-07T11:04:43;21.38;61.91
68189;DHT22;66299;47.514;19.218;2023-05-07T11:07:36;21.28;62.63
68189;DHT22;66299;47.514;19.218;2023-05-07T11:10:09;21.15;63.74
68189;DHT22;66299;47.514;19.218;2023-05-07T11:12:57;21.28;64.01
68189;DHT22;66299;47.514;19.218;2023-05-07T11:15:41;21.15;65.43
68189;DHT22;66299;47.514;19.218;2023-05-07T11:18:18;21.28;64.70
68189;DHT22;66299;47.514;19.218;2023-05-07T11:21:01;21.30;64.71
68189;DHT22;66299;47.514;19.218;2023-05-07T11:26:45;22.25;63.13
68189;DHT22;66299;47.514;19.218;2023-05-07T11:29:21;22.18;62.94
68189;DHT22;66299;47.514;19.218;2023-05-07T11:31:55;22.62;64.02
68189;DHT22;66299;47.514;19.218;2023-05-07T11:34:27;22.18;63.90
68189;DHT22;66299;47.514;19.218;2023-05-07T11:36:58;22.27;61.54
68189;DHT22;66299;47.514;19.218;2023-05-07T11:39:36;21.88;62.27
68189;DHT22;66299;47.514;19.218;2023-05-07T11:42:25;22.01;58.29
68189;DHT22;66299;47.514;19.218;2023-05-07T11:44:57;22.57;58.31
68189;DHT22;66299;47.514;19.218;2023-05-07T11:47:26;23.15;56.86
68189;DHT22;66299;47.514;19.218;2023-05-07T11:50:07;24.02;56.18
68189;DHT22;66299;47.514;19.218;2023-05-07T11:52:49;23.90;57.77
68189;DHT22;66299;47.514;19.218;2023-05-07T11:58:12;22.94;58.28
68189;DHT22;66299;47.514;19.218;2023-05-07T12:00:51;22.49;56.83
68189;DHT22;66299;47.514;19.218;2023-05-07T12:03:21;22.15;56.54
68189;DHT22;66299;47.514;19.218;2023-05-07T12:05:51;22.04;58.65
68189;DHT22;66299;47.514;19.218;2023-05-07T12:08:26;21.64;54.31
68189;DHT22;66299;47.514;19.218;2023-05-07T12:10:58;21.83;54.49
68189;DHT22;66299;47.514;19.218;2023-05-07T12:13:30;21.69;55.73
68189;DHT22;66299;47.514;19.218;2023-05-07T12:16:05;21.59;54.05
68189;DHT22;66299;47.514;19.218;2023-05-07T12:18:39;21.63;55.51
68189;DHT22;66299;47.514;19.218;2023-05-07T12:21:12;21.69;55.37
68189;DHT22;66299;47.514;19.218;2023-05-07T12:23:45;22.05;55.72
68189;DHT22;66299;47.514;19.218;2023-05-07T12:26:16;22.19;57.93
68189;DHT22;66299;47.514;19.218;2023-05-07T12:28:50;21.96;59.85
68189;DHT22;66299;47.514;19.218;2023-05-07T12:31:30;21.81;62.40
68189;DHT22;66299;47.514;19.218;2023-05-07T12:34:08;21.49;63.40
68189;DHT22;66299;47.514;19.218;2023-05-07T12:36:40;21.78;63.02
68189;DHT22;66299;47.514;19.218;2023-05-07T12:39:09;22.36;61.30
68189;DHT22;66299;47.514;19.218;2023-05-07T12:41:56;22.94;59.32
68189;DHT22;66299;47.514;19.218;2023-05-07T12:44:32;22.87;60.94
68189;DHT22;66299;47.514;19.218;2023-05-07T12:47:04;22.42;62.02
68189;DHT22;66299;47.514;19.218;2023-05-07T12:49:38;21.88;61.31
68189;DHT22;66299;47.514;19.218;2023-05-07T12:52:13;22.08;62.48
68189;DHT22;66299;47.514;19.218;2023-05-07T12:54:49;22.42;61.44
68189;DHT22;66299;47.514;19.218;2023-05-07T12:57:20;21.96;61.65
68189;DHT22;66299;47.514;19.218;2023-05-07T12:59:50;22.12;61.54
68189;DHT22;66299;47.514;19.218;2023-05-07T13:02:21;22.32;61.70
68189;DHT22;66299;47.514;19.218;2023-05-07T13:05:04;22.42;60.65
68189;DHT22;66299;47.514;19.218;2023-05-07T13:07:32;22.55;60.88
68189;DHT22;66299;47.514;19.218;2023-05-07T13:10:01;22.94;58.68
68189;DHT22;66299;47.514;19.218;2023-05-07T13:12:29;23.25;57.47
68189;DHT22;66299;47.514;19.218;2023-05-07T13:15:03;23.42;55.40
68189;DHT22;66299;47.514;19.218;2023-05-07T13:17:32;23.24;55.79
68189;DHT22;66299;47.514;19.218;2023-05-07T13:20:00;23.04;57.00
68189;DHT22;66299;47.514;19.218;2023-05-07T13:22:32;23.30;57.50
68189;DHT22;66299;47.514;19.218;2023-05-07T13:25:01;23.41;56.01
68189;DHT22;66299;47.514;19.218;2023-05-07T13:27:30;23.79;55.72
68189;DHT22;66299;47.514;19.218;2023-05-07T13:30:05;23.10;55.66
68189;DHT22;66299;47.514;19.218;2023-05-07T13:32:34;23.07;56.13
68189;DHT22;66299;47.514;19.218;2023-05-07T13:35:08;23.35;55.62
68189;DHT22;66299;47.514;19.218;2023-05-07T13:37:37;23.08;56.10
68189;DHT22;66299;47.514;19.218;2023-05-07T13:40:08;23.34;57.80
68189;DHT22;66299;47.514;19.218;2023-05-07T13:42:38;23.13;57.36
68189;DHT22;66299;47.514;19.218;2023-05-07T13:45:16;22.69;56.28
68189;DHT22;66299;47.514;19.218;2023-05-07T13:47:48;23.00;55.80
68189;DHT22;66299;47.514;19.218;2023-05-07T13:50:19;22.96;56.06
68189;DHT22;66299;47.514;19.218;2023-05-07T13:52:48;23.31;55.54
68189;DHT22;66299;47.514;19.218;2023-05-07T13:55:18;23.47;55.68
68189;DHT22;66299;47.514;19.218;2023-05-07T13:57:58;23.54;55.36
68189;DHT22;66299;47.514;19.218;2023-05-07T14:00:29;23.65;56.08
68189;DHT22;66299;47.514;19.218;2023-05-07T14:03:00;23.25;55.99
68189;DHT22;66299;47.514;19.218;2023-05-07T14:05:31;23.17;56.07
68189;DHT22;66299;47.514;19.218;2023-05-07T14:08:01;23.66;56.75
68189;DHT22;66299;47.514;19.218;2023-05-07T14:10:30;22.94;56.50
68189;DHT22;66299;47.514;19.218;2023-05-07T14:13:06;23.14;57.03
68189;DHT22;66299;47.514;19.218;2023-05-07T14:15:41;22.92;56.07
68189;DHT22;66299;47.514;19.218;2023-05-07T14:18:14;22.92;56.40
68189;DHT22;66299;47.514;19.218;2023-05-07T14:20:49;22.80;56.78
68189;DHT22;66299;47.514;19.218;2023-05-07T14:23:24;23.07;57.12
68189;DHT22;66299;47.514;19.218;2023-05-07T14:26:00;22.77;56.30
68189;DHT22;66299;47.514;19.218;2023-05-07T14:28:29;23.14;56.60
68189;DHT22;66299;47.514;19.218;2023-05-07T14:31:00;22.77;56.63
68189;DHT22;66299;47.514;19.218;2023-05-07T14:33:30;22.65;58.02
68189;DHT22;66299;47.514;19.218;2023-05-07T14:35:59;22.89;57.30
68189;DHT22;66299;47.514;19.218;2023-05-07T14:38:32;23.08;56.52
68189;DHT22;66299;47.514;19.218;2023-05-07T14:41:01;22.90;55.94
68189;DHT22;66299;47.514;19.218;2023-05-07T14:43:30;23.31;54.47
68189;DHT22;66299;47.514;19.218;2023-05-07T14:46:00;23.52;54.08
68189;DHT22;66299;47.514;19.218;2023-05-07T14:48:28;23.66;54.25
68189;DHT22;66299;47.514;19.218;2023-05-07T14:50:57;23.44;52.81
68189;DHT22;66299;47.514;19.218;2023-05-07T14:53:25;23.57;53.66
68189;DHT22;66299;47.514;19.218;2023-05-07T14:55:59;22.99;53.32
68189;DHT22;66299;47.514;19.218;2023-05-07T14:58:28;23.40;53.27
68189;DHT22;66299;47.514;19.218;2023-05-07T15:00:56;23.17;53.46
68189;DHT22;66299;47.514;19.218;2023-05-07T15:03:26;23.06;52.81
68189;DHT22;66299;47.514;19.218;2023-05-07T15:05:55;23.37;53.92
68189;DHT22;66299;47.514;19.218;2023-05-07T15:08:24;22.70;53.88
68189;DHT22;66299;47.514;19.218;2023-05-07T15:10:53;22.75;54.08
68189;DHT22;66299;47.514;19.218;2023-05-07T15:13:22;22.67;54.23
68189;DHT22;66299;47.514;19.218;2023-05-07T15:16:00;22.41;54.46
68189;DHT22;66299;47.514;19.218;2023-05-07T15:18:31;22.55;54.52
68189;DHT22;66299;47.514;19.218;2023-05-07T15:21:00;22.70;54.80
68189;DHT22;66299;47.514;19.218;2023-05-07T15:23:28;22.57;54.59
68189;DHT22;66299;47.514;19.218;2023-05-07T15:26:04;22.39;54.17
68189;DHT22;66299;47.514;19.218;2023-05-07T15:28:39;22.21;54.77
68189;DHT22;66299;47.514;19.218;2023-05-07T15:31:15;22.27;55.03
68189;DHT22;66299;47.514;19.218;2023-05-07T15:33:46;22.27;56.06
68189;DHT22;66299;47.514;19.218;2023-05-07T15:36:14;22.38;56.01
68189;DHT22;66299;47.514;19.218;2023-05-07T15:38:43;22.27;57.00
68189;DHT22;66299;47.514;19.218;2023-05-07T15:41:12;22.08;56.55
68189;DHT22;66299;47.514;19.218;2023-05-07T15:43:45;22.05;56.66
68189;DHT22;66299;47.514;19.218;2023-05-07T15:46:26;21.94;56.78
68189;DHT22;66299;47.514;19.218;2023-05-07T15:49:03;22.04;57.35
68189;DHT22;66299;47.514;19.218;2023-05-07T15:51:36;21.81;58.03
68189;DHT22;66299;47.514;19.218;2023-05-07T15:54:06;21.86;57.56
68189;DHT22;66299;47.514;19.218;2023-05-07T15:56:38;21.71;58.25
68189;DHT22;66299;47.514;19.218;2023-05-07T15:59:08;21.51;56.86
68189;DHT22;66299;47.514;19.218;2023-05-07T16:01:41;21.54;57.32